createdAt,value
2016-04-18T00:00:48.304Z,0
2016-04-18T00:01:48.292Z,0
2016-04-18T00:02:48.248Z,0
2016-04-18T00:03:48.218Z,0
2016-04-18T00:04:48.207Z,0
2016-04-18T00:05:48.193Z,0
2016-04-18T00:06:48.134Z,0
2016-04-18T00:07:48.137Z,0
2016-04-18T00:08:48.248Z,0
2016-04-18T00:09:48.048Z,0
2016-04-18T00:10:48.034Z,0
2016-04-18T00:11:47.975Z,0
2016-04-18T00:12:47.961Z,0
2016-04-18T00:13:47.949Z,0
2016-04-18T00:14:47.926Z,0
2016-04-18T00:15:47.939Z,0
2016-04-18T00:16:47.970Z,0
2016-04-18T00:17:47.969Z,0
2016-04-18T00:18:47.984Z,0
2016-04-18T00:19:47.984Z,0
2016-04-18T00:20:47.971Z,0
2016-04-18T00:21:47.958Z,0
2016-04-18T00:22:47.960Z,0
2016-04-18T00:23:47.964Z,0
2016-04-18T00:24:47.914Z,0
2016-04-18T00:25:47.891Z,0
2016-04-18T00:26:47.869Z,0
2016-04-18T00:27:47.830Z,0
2016-04-18T00:28:47.823Z,0
2016-04-18T00:29:47.798Z,0
2016-04-18T00:30:47.772Z,0
2016-04-18T00:31:47.760Z,0
2016-04-18T00:32:47.703Z,0
2016-04-18T00:33:47.691Z,0
2016-04-18T00:34:47.664Z,0
2016-04-18T00:35:47.636Z,0
2016-04-18T00:36:47.593Z,0
2016-04-18T00:37:47.597Z,0
2016-04-18T00:38:47.709Z,0
2016-04-18T00:39:47.524Z,0
2016-04-18T00:40:47.481Z,0
2016-04-18T00:41:47.453Z,0
2016-04-18T00:42:47.425Z,0
2016-04-18T00:43:47.412Z,0
2016-04-18T00:44:47.369Z,0
2016-04-18T00:45:47.339Z,0
2016-04-18T00:46:47.311Z,0
2016-04-18T00:47:47.282Z,0
2016-04-18T00:48:47.270Z,0
2016-04-18T00:49:47.226Z,0
2016-04-18T00:50:47.197Z,0
2016-04-18T00:51:47.166Z,0
2016-04-18T00:52:47.153Z,0
2016-04-18T00:53:47.155Z,0
2016-04-18T00:54:47.080Z,0
2016-04-18T00:55:47.052Z,0
2016-04-18T00:56:47.039Z,0
2016-04-18T00:57:46.994Z,0
2016-04-18T00:58:46.966Z,0
2016-04-18T00:59:46.953Z,0
2016-04-18T01:00:46.941Z,0
2016-04-18T01:01:46.896Z,0
2016-04-18T01:02:46.836Z,0
2016-04-18T01:03:46.823Z,0
2016-04-18T01:04:46.795Z,0
2016-04-18T01:05:46.766Z,0
2016-04-18T01:06:46.738Z,0
2016-04-18T01:07:46.709Z,0
2016-04-18T01:08:46.727Z,0
2016-04-18T01:09:46.651Z,0
2016-04-18T01:10:46.639Z,0
2016-04-18T01:11:46.439Z,0
2016-04-18T01:12:46.582Z,0
2016-04-18T01:13:46.553Z,0
2016-04-18T01:14:46.509Z,0
2016-04-18T01:15:46.495Z,0
2016-04-18T01:16:46.452Z,0
2016-04-18T01:17:46.408Z,0
2016-04-18T01:18:46.394Z,0
2016-04-18T01:19:46.367Z,0
2016-04-18T01:20:46.338Z,0
2016-04-18T01:21:46.308Z,0
2016-04-18T01:22:46.265Z,0
2016-04-18T01:23:46.267Z,0
2016-04-18T01:24:46.207Z,0
2016-04-18T01:25:46.180Z,0
2016-04-18T01:26:46.151Z,0
2016-04-18T01:27:46.137Z,0
2016-04-18T01:28:46.094Z,0
2016-04-18T01:29:46.080Z,0
2016-04-18T01:30:46.052Z,0
2016-04-18T01:31:46.008Z,0
2016-04-18T01:32:45.995Z,0
2016-04-18T01:33:45.966Z,0
2016-04-18T01:34:45.922Z,0
2016-04-18T01:35:45.894Z,0
2016-04-18T01:36:45.865Z,0
2016-04-18T01:37:45.837Z,0
2016-04-18T01:38:45.839Z,0
2016-04-18T01:39:45.795Z,0
2016-04-18T01:40:45.734Z,0
2016-04-18T01:41:45.707Z,0
2016-04-18T01:42:45.693Z,0
2016-04-18T01:43:45.650Z,0
2016-04-18T01:44:45.637Z,0
2016-04-18T01:45:45.609Z,0
2016-04-18T01:46:45.564Z,0
2016-04-18T01:47:45.536Z,0
2016-04-18T01:48:45.506Z,0
2016-04-18T01:49:45.494Z,0
2016-04-18T01:50:45.449Z,0
2016-04-18T01:51:45.436Z,0
2016-04-18T01:52:45.408Z,0
2016-04-18T01:53:45.364Z,0
2016-04-18T01:54:45.335Z,0
2016-04-18T01:55:45.322Z,0
2016-04-18T01:56:45.278Z,0
2016-04-18T01:57:45.250Z,0
2016-04-18T01:58:45.221Z,0
2016-04-18T01:59:45.208Z,0
2016-04-18T02:00:45.148Z,0
2016-04-18T02:01:45.135Z,0
2016-04-18T02:02:45.107Z,0
2016-04-18T02:03:45.078Z,0
2016-04-18T02:04:45.050Z,0
2016-04-18T02:05:45.005Z,0
2016-04-18T02:06:44.976Z,0
2016-04-18T02:07:44.948Z,0
2016-04-18T02:08:44.921Z,0
2016-04-18T02:09:44.891Z,0
2016-04-18T02:10:44.893Z,0
2016-04-18T02:11:44.834Z,0
2016-04-18T02:12:44.806Z,0
2016-04-18T02:13:44.777Z,0
2016-04-18T02:14:44.748Z,0
2016-04-18T02:15:44.704Z,0
2016-04-18T02:16:44.692Z,0
2016-04-18T02:17:44.662Z,0
2016-04-18T02:18:44.634Z,0
2016-04-18T02:19:44.637Z,0
2016-04-18T02:20:44.578Z,0
2016-04-18T02:21:44.548Z,0
2016-04-18T02:22:44.520Z,0
2016-04-18T02:23:44.491Z,0
2016-04-18T02:24:44.447Z,0
2016-04-18T02:25:44.418Z,0
2016-04-18T02:26:44.391Z,0
2016-04-18T02:27:44.361Z,0
2016-04-18T02:28:44.317Z,0
2016-04-18T02:29:44.305Z,0
2016-04-18T02:30:44.260Z,0
2016-04-18T02:31:44.232Z,0
2016-04-18T02:32:44.203Z,0
2016-04-18T02:33:44.174Z,0
2016-04-18T02:34:44.146Z,0
2016-04-18T02:35:44.133Z,0
2016-04-18T02:36:44.088Z,0
2016-04-18T02:37:44.060Z,0
2016-04-18T02:38:44.031Z,0
2016-04-18T02:39:44.004Z,0
2016-04-18T02:40:43.975Z,0
2016-04-18T02:41:43.946Z,0
2016-04-18T02:42:43.902Z,0
2016-04-18T02:43:43.889Z,0
2016-04-18T02:44:43.688Z,0
2016-04-18T02:45:43.831Z,0
2016-04-18T02:46:43.787Z,0
2016-04-18T02:47:43.759Z,0
2016-04-18T02:48:43.745Z,0
2016-04-18T02:49:43.717Z,0
2016-04-18T02:50:43.517Z,0
2016-04-18T02:51:43.661Z,0
2016-04-18T02:52:43.616Z,0
2016-04-18T02:53:43.588Z,0
2016-04-18T02:54:43.575Z,0
2016-04-18T02:55:43.531Z,0
2016-04-18T02:56:43.502Z,0
2016-04-18T02:57:43.474Z,0
2016-04-18T02:58:43.444Z,0
2016-04-18T02:59:43.401Z,0
2016-04-18T03:00:43.387Z,0
2016-04-18T03:01:42.610Z,0
2016-04-18T03:02:43.315Z,0
2016-04-18T03:03:43.302Z,0
2016-04-18T03:04:43.257Z,0
2016-04-18T03:05:43.229Z,0
2016-04-18T03:06:43.201Z,0
2016-04-18T03:07:43.157Z,0
2016-04-18T03:08:43.144Z,0
2016-04-18T03:09:43.100Z,0
2016-04-18T03:10:43.087Z,0
2016-04-18T03:11:43.043Z,0
2016-04-18T03:12:43.029Z,0
2016-04-18T03:13:42.985Z,0
2016-04-18T03:14:42.957Z,0
2016-04-18T03:15:42.773Z,0
2016-04-18T03:16:42.900Z,0
2016-04-18T03:17:42.856Z,0
2016-04-18T03:18:42.827Z,0
2016-04-18T03:19:42.814Z,0
2016-04-18T03:20:42.770Z,0
2016-04-18T03:21:42.741Z,0
2016-04-18T03:22:42.744Z,0
2016-04-18T03:23:42.669Z,0
2016-04-18T03:24:42.765Z,0
2016-04-18T03:25:42.611Z,0
2016-04-18T03:26:42.583Z,0
2016-04-18T03:27:42.585Z,0
2016-04-18T03:28:42.525Z,0
2016-04-18T03:29:42.496Z,0
2016-04-18T03:30:42.483Z,0
2016-04-18T03:31:42.440Z,0
2016-04-18T03:32:42.411Z,0
2016-04-18T03:33:42.383Z,0
2016-04-18T03:34:42.338Z,0
2016-04-18T03:35:42.326Z,0
2016-04-18T03:36:42.312Z,0
2016-04-18T03:37:42.268Z,0
2016-04-18T03:38:42.240Z,0
2016-04-18T03:39:42.321Z,0
2016-04-18T03:40:42.183Z,0
2016-04-18T03:41:42.154Z,0
2016-04-18T03:42:42.110Z,0
2016-04-18T03:43:42.082Z,0
2016-04-18T03:44:42.037Z,0
2016-04-18T03:45:42.040Z,0
2016-04-18T03:46:41.995Z,0
2016-04-18T03:47:41.968Z,0
2016-04-18T03:48:41.939Z,0
2016-04-18T03:49:41.926Z,0
2016-04-18T03:50:41.866Z,0
2016-04-18T03:51:41.853Z,0
2016-04-18T03:52:41.809Z,0
2016-04-18T03:53:41.780Z,0
2016-04-18T03:54:41.923Z,0
2016-04-18T03:55:41.707Z,0
2016-04-18T03:56:41.678Z,0
2016-04-18T03:57:41.650Z,0
2016-04-18T03:58:41.638Z,0
2016-04-18T03:59:41.594Z,0
2016-04-18T04:00:41.408Z,0
2016-04-18T04:01:41.536Z,0
2016-04-18T04:02:41.492Z,0
2016-04-18T04:03:41.480Z,0
2016-04-18T04:04:41.435Z,0
2016-04-18T04:05:41.407Z,0
2016-04-18T04:06:41.362Z,0
2016-04-18T04:07:41.333Z,0
2016-04-18T04:08:41.305Z,0
2016-04-18T04:09:41.448Z,0
2016-04-18T04:10:41.263Z,0
2016-04-18T04:11:41.235Z,0
2016-04-18T04:12:41.191Z,0
2016-04-18T04:13:41.178Z,0
2016-04-18T04:14:41.149Z,0
2016-04-18T04:15:41.121Z,0
2016-04-18T04:16:41.061Z,0
2016-04-18T04:17:41.032Z,0
2016-04-18T04:18:41.004Z,0
2016-04-18T04:19:40.975Z,5
2016-04-18T04:20:40.962Z,5
2016-04-18T04:21:40.949Z,5
2016-04-18T04:22:40.921Z,5
2016-04-18T04:23:40.861Z,5
2016-04-18T04:24:40.989Z,5
2016-04-18T04:25:40.789Z,5
2016-04-18T04:26:40.759Z,5
2016-04-18T04:27:40.731Z,10
2016-04-18T04:28:40.718Z,10
2016-04-18T04:29:40.690Z,10
2016-04-18T04:30:40.645Z,10
2016-04-18T04:31:40.602Z,10
2016-04-18T04:32:40.588Z,15
2016-04-18T04:33:40.560Z,15
2016-04-18T04:34:40.531Z,15
2016-04-18T04:35:40.502Z,15
2016-04-18T04:36:40.458Z,15
2016-04-18T04:37:40.429Z,20
2016-04-18T04:38:40.416Z,20
2016-04-18T04:39:40.373Z,20
2016-04-18T04:40:40.344Z,20
2016-04-18T04:41:40.316Z,25
2016-04-18T04:42:40.287Z,25
2016-04-18T04:43:40.259Z,25
2016-04-18T04:44:40.229Z,25
2016-04-18T04:45:40.185Z,25
2016-04-18T04:46:40.172Z,30
2016-04-18T04:47:40.111Z,30
2016-04-18T04:48:40.099Z,30
2016-04-18T04:49:40.055Z,30
2016-04-18T04:50:40.073Z,35
2016-04-18T04:51:39.998Z,35
2016-04-18T04:52:39.969Z,35
2016-04-18T04:53:39.956Z,35
2016-04-18T04:54:39.944Z,40
2016-04-18T04:55:39.868Z,40
2016-04-18T04:56:39.855Z,40
2016-04-18T04:57:39.827Z,40
2016-04-18T04:58:39.798Z,45
2016-04-18T04:59:39.754Z,45
2016-04-18T05:00:39.741Z,45
2016-04-18T05:01:39.696Z,45
2016-04-18T05:02:39.668Z,50
2016-04-18T05:03:39.670Z,50
2016-04-18T05:04:39.610Z,50
2016-04-18T05:05:39.567Z,50
2016-04-18T05:06:39.538Z,55
2016-04-18T05:07:39.354Z,55
2016-04-18T05:08:39.481Z,55
2016-04-18T05:09:39.781Z,55
2016-04-18T05:10:39.408Z,60
2016-04-18T05:11:39.395Z,60
2016-04-18T05:12:39.367Z,60
2016-04-18T05:13:39.338Z,60
2016-04-18T05:14:39.309Z,65
2016-04-18T05:15:39.265Z,65
2016-04-18T05:16:39.253Z,65
2016-04-18T05:17:39.224Z,65
2016-04-18T05:18:39.180Z,65
2016-04-18T05:19:39.135Z,70
2016-04-18T05:20:39.138Z,70
2016-04-18T05:21:38.922Z,70
2016-04-18T05:22:39.066Z,70
2016-04-18T05:23:39.036Z,70
2016-04-18T05:24:38.836Z,75
2016-04-18T05:25:39.074Z,75
2016-04-18T05:26:38.919Z,75
2016-04-18T05:27:38.907Z,75
2016-04-18T05:28:38.878Z,80
2016-04-18T05:29:38.855Z,80
2016-04-18T05:30:39.046Z,80
2016-04-18T05:31:38.783Z,80
2016-04-18T05:32:38.755Z,80
2016-04-18T05:33:38.726Z,80
2016-04-18T05:34:38.682Z,85
2016-04-18T05:35:38.652Z,85
2016-04-18T05:36:38.624Z,85
2016-04-18T05:37:38.612Z,85
2016-04-18T05:38:38.583Z,85
2016-04-18T05:39:38.430Z,85
2016-04-18T05:40:38.526Z,90
2016-04-18T05:41:38.482Z,90
2016-04-18T05:42:38.484Z,90
2016-04-18T05:43:38.440Z,90
2016-04-18T05:44:38.411Z,90
2016-04-18T05:45:38.367Z,90
2016-04-18T05:46:38.339Z,95
2016-04-18T05:47:38.294Z,95
2016-04-18T05:48:38.267Z,95
2016-04-18T05:49:38.237Z,95
2016-04-18T05:50:38.209Z,95
2016-04-18T05:51:38.180Z,95
2016-04-18T05:52:38.136Z,95
2016-04-18T05:53:38.123Z,95
2016-04-18T05:54:38.126Z,95
2016-04-18T05:55:37.911Z,100
2016-04-18T05:56:38.039Z,100
2016-04-18T05:57:38.009Z,100
2016-04-18T05:58:37.965Z,100
2016-04-18T05:59:37.952Z,100
2016-04-18T06:00:37.908Z,100
2016-04-18T06:01:37.879Z,100
2016-04-18T06:02:37.850Z,100
2016-04-18T06:03:37.822Z,100
2016-04-18T06:04:37.778Z,105
2016-04-18T06:05:37.750Z,105
2016-04-18T06:06:37.736Z,105
2016-04-18T06:07:37.708Z,105
2016-04-18T06:08:37.679Z,105
2016-04-18T06:09:37.744Z,105
2016-04-18T06:10:37.606Z,105
2016-04-18T06:11:37.609Z,105
2016-04-18T06:12:37.549Z,110
2016-04-18T06:13:37.537Z,110
2016-04-18T06:14:37.493Z,110
2016-04-18T06:15:37.479Z,115
2016-04-18T06:16:37.451Z,110
2016-04-18T06:17:37.422Z,110
2016-04-18T06:18:37.379Z,110
2016-04-18T06:19:37.365Z,115
2016-04-18T06:20:37.337Z,115
2016-04-18T06:21:37.308Z,115
2016-04-18T06:22:37.108Z,115
2016-04-18T06:23:37.250Z,115
2016-04-18T06:24:37.238Z,120
2016-04-18T06:25:37.209Z,120
2016-04-18T06:26:37.165Z,120
2016-04-18T06:27:37.137Z,120
2016-04-18T06:28:37.124Z,120
2016-04-18T06:29:36.923Z,120
2016-04-18T06:30:37.051Z,125
2016-04-18T06:31:37.038Z,125
2016-04-18T06:32:36.978Z,125
2016-04-18T06:33:36.949Z,125
2016-04-18T06:34:36.922Z,125
2016-04-18T06:35:36.893Z,125
2016-04-18T06:36:36.864Z,125
2016-04-18T06:37:36.852Z,130
2016-04-18T06:38:36.822Z,130
2016-04-18T06:39:36.778Z,130
2016-04-18T06:40:36.750Z,130
2016-04-18T06:41:36.721Z,130
2016-04-18T06:42:36.708Z,130
2016-04-18T06:43:36.665Z,130
2016-04-18T06:44:36.635Z,130
2016-04-18T06:45:36.623Z,135
2016-04-18T06:46:36.593Z,135
2016-04-18T06:47:36.565Z,135
2016-04-18T06:48:36.553Z,135
2016-04-18T06:49:36.493Z,135
2016-04-18T06:50:36.480Z,140
2016-04-18T06:51:36.451Z,140
2016-04-18T06:52:36.423Z,140
2016-04-18T06:53:36.378Z,140
2016-04-18T06:54:36.365Z,140
2016-04-18T06:55:36.337Z,140
2016-04-18T06:56:36.340Z,145
2016-04-18T06:57:36.295Z,145
2016-04-18T06:58:36.267Z,145
2016-04-18T06:59:36.222Z,145
2016-04-18T07:00:36.210Z,150
2016-04-18T07:01:36.196Z,150
2016-04-18T07:02:36.152Z,150
2016-04-18T07:03:36.124Z,150
2016-04-18T07:04:36.095Z,155
2016-04-18T07:05:36.066Z,150
2016-04-18T07:06:36.038Z,150
2016-04-18T07:07:36.041Z,155
2016-04-18T07:08:36.013Z,155
2016-04-18T07:09:35.985Z,155
2016-04-18T07:10:35.955Z,160
2016-04-18T07:11:35.896Z,155
2016-04-18T07:12:35.882Z,160
2016-04-18T07:13:35.854Z,160
2016-04-18T07:14:35.809Z,160
2016-04-18T07:15:35.797Z,165
2016-04-18T07:16:35.768Z,160
2016-04-18T07:17:35.756Z,160
2016-04-18T07:18:35.711Z,165
2016-04-18T07:19:35.682Z,165
2016-04-18T07:20:35.653Z,170
2016-04-18T07:21:35.633Z,170
2016-04-18T07:22:35.603Z,175
2016-04-18T07:23:41.481Z,175
2016-04-18T07:24:40.453Z,180
2016-04-18T07:25:39.237Z,175
2016-04-18T07:26:37.505Z,180
2016-04-18T07:27:41.274Z,180
2016-04-18T07:28:41.464Z,185
2016-04-18T07:29:40.607Z,190
2016-04-18T07:30:41.688Z,195
2016-04-18T07:31:40.925Z,200
2016-04-18T07:32:39.677Z,210
2016-04-18T07:33:41.680Z,215
2016-04-18T07:34:39.824Z,230
2016-04-18T07:35:39.795Z,240
2016-04-18T07:36:41.626Z,260
2016-04-18T07:37:42.018Z,275
2016-04-18T07:38:41.834Z,290
2016-04-18T07:39:38.962Z,305
2016-04-18T07:40:41.886Z,320
2016-04-18T07:41:35.092Z,340
2016-04-18T07:42:35.064Z,485
2016-04-18T07:43:35.034Z,735
2016-04-18T07:44:35.022Z,1005
2016-04-18T07:45:35.009Z,1220
2016-04-18T07:46:34.964Z,1270
2016-04-18T07:47:34.952Z,1260
2016-04-18T07:48:34.923Z,1225
2016-04-18T07:49:34.895Z,1180
2016-04-18T07:50:35.023Z,1180
2016-04-18T07:51:34.854Z,1160
2016-04-18T07:52:34.856Z,1205
2016-04-18T07:53:34.828Z,1250
2016-04-18T07:54:34.799Z,1285
2016-04-18T07:55:34.771Z,1290
2016-04-18T07:56:34.741Z,1265
2016-04-18T07:57:34.713Z,1230
2016-04-18T07:58:34.700Z,1165
2016-04-18T07:59:34.688Z,1115
2016-04-18T08:00:34.674Z,1105
2016-04-18T08:01:34.646Z,1070
2016-04-18T08:02:34.632Z,1135
2016-04-18T08:03:34.605Z,1190
2016-04-18T08:04:34.607Z,1265
2016-04-18T08:05:34.579Z,1275
2016-04-18T08:06:34.565Z,1280
2016-04-18T08:07:34.568Z,1325
2016-04-18T08:08:34.524Z,1375
2016-04-18T08:09:34.512Z,1390
2016-04-18T08:10:34.498Z,1400
2016-04-18T08:11:34.501Z,1430
2016-04-18T08:12:34.472Z,1410
2016-04-18T08:13:34.459Z,1410
2016-04-18T08:14:34.431Z,1350
2016-04-18T08:15:34.449Z,1300
2016-04-18T08:16:34.436Z,1255
2016-04-18T08:17:34.392Z,1250
2016-04-18T08:18:34.239Z,1295
2016-04-18T08:19:34.366Z,1360
2016-04-18T08:20:34.370Z,1425
2016-04-18T08:21:34.356Z,1390
2016-04-18T08:22:34.328Z,1355
2016-04-18T08:23:34.315Z,1360
2016-04-18T08:24:34.303Z,1365
2016-04-18T08:25:34.492Z,1390
2016-04-18T08:26:34.275Z,1385
2016-04-18T08:27:34.263Z,1390
2016-04-18T08:28:34.265Z,1415
2016-04-18T08:29:34.252Z,1490
2016-04-18T08:30:34.224Z,1530
2016-04-18T08:31:34.211Z,1495
2016-04-18T08:32:34.199Z,1480
2016-04-18T08:33:34.014Z,1455
2016-04-18T08:34:34.172Z,1045
2016-04-18T08:35:34.174Z,440
2016-04-18T08:36:34.147Z,245
2016-04-18T08:37:34.149Z,235
2016-04-18T08:38:34.121Z,225
2016-04-18T08:39:34.124Z,215
2016-04-18T08:40:34.079Z,200
2016-04-18T08:41:34.098Z,195
2016-04-18T08:42:34.053Z,185
2016-04-18T08:43:34.040Z,180
2016-04-18T08:44:34.028Z,175
2016-04-18T08:45:33.999Z,175
2016-04-18T08:46:34.001Z,175
2016-04-18T08:47:33.973Z,175
2016-04-18T08:48:33.959Z,175
2016-04-18T08:49:33.947Z,170
2016-04-18T08:50:33.778Z,175
2016-04-18T08:51:33.906Z,175
2016-04-18T08:52:33.893Z,175
2016-04-18T08:53:33.848Z,170
2016-04-18T08:54:33.836Z,170
2016-04-18T08:55:34.104Z,170
2016-04-18T08:56:33.810Z,175
2016-04-18T08:57:33.780Z,170
2016-04-18T08:58:33.768Z,170
2016-04-18T08:59:33.755Z,170
2016-04-18T09:00:33.710Z,170
2016-04-18T09:01:33.558Z,170
2016-04-18T09:02:33.669Z,170
2016-04-18T09:03:33.641Z,170
2016-04-18T09:04:33.627Z,170
2016-04-18T09:05:33.600Z,170
2016-04-18T09:06:33.602Z,170
2016-04-18T09:07:33.574Z,170
2016-04-18T09:08:33.546Z,170
2016-04-18T09:09:33.533Z,170
2016-04-18T09:10:34.565Z,170
2016-04-18T09:11:33.475Z,170
2016-04-18T09:12:33.463Z,170
2016-04-18T09:13:33.417Z,170
2016-04-18T09:14:33.405Z,165
2016-04-18T09:15:33.361Z,165
2016-04-18T09:16:33.364Z,165
2016-04-18T09:17:33.334Z,165
2016-04-18T09:18:33.322Z,165
2016-04-18T09:19:33.278Z,170
2016-04-18T09:20:33.265Z,170
2016-04-18T09:21:33.277Z,165
2016-04-18T09:22:33.322Z,165
2016-04-18T09:23:33.335Z,165
2016-04-18T09:24:33.318Z,165
2016-04-18T09:25:33.080Z,165
2016-04-18T09:26:33.327Z,165
2016-04-18T09:27:33.314Z,170
2016-04-18T09:28:33.317Z,170
2016-04-18T09:29:33.319Z,170
2016-04-18T09:30:33.307Z,170
2016-04-18T09:31:33.303Z,170
2016-04-18T09:32:33.295Z,165
2016-04-18T09:33:33.255Z,165
2016-04-18T09:34:33.232Z,165
2016-04-18T09:35:33.226Z,165
2016-04-18T09:36:33.185Z,165
2016-04-18T09:37:33.017Z,165
2016-04-18T09:38:33.163Z,165
2016-04-18T09:39:33.135Z,165
2016-04-18T09:40:33.546Z,165
2016-04-18T09:41:33.097Z,165
2016-04-18T09:42:33.070Z,165
2016-04-18T09:43:33.026Z,165
2016-04-18T09:44:33.029Z,165
2016-04-18T09:45:33.018Z,175
2016-04-18T09:46:32.974Z,180
2016-04-18T09:47:32.945Z,180
2016-04-18T09:48:32.933Z,175
2016-04-18T09:49:32.904Z,170
2016-04-18T09:50:32.874Z,165
2016-04-18T09:51:32.862Z,160
2016-04-18T09:52:32.833Z,160
2016-04-18T09:53:32.835Z,160
2016-04-18T09:54:32.792Z,160
2016-04-18T09:55:32.826Z,160
2016-04-18T09:56:32.751Z,160
2016-04-18T09:57:32.738Z,160
2016-04-18T10:01:49.482Z,160
2016-04-18T10:02:01.814Z,160
2016-04-18T10:03:01.800Z,160
2016-04-18T10:04:01.756Z,160
2016-04-18T10:05:01.743Z,160
2016-04-18T10:08:15.423Z,160
2016-04-18T10:08:27.767Z,165
2016-04-18T10:09:27.786Z,165
2016-04-18T10:10:27.586Z,165
2016-04-18T10:11:27.697Z,165
2016-04-18T10:12:28.012Z,160
2016-04-18T10:13:27.659Z,160
2016-04-18T10:14:27.614Z,160
2016-04-18T10:15:27.602Z,165
2016-04-18T10:16:27.589Z,165
2016-04-18T10:17:27.561Z,165
2016-04-18T10:18:27.547Z,165
2016-04-18T10:19:27.518Z,165
2016-04-18T10:20:27.552Z,160
2016-04-18T10:21:27.461Z,160
2016-04-18T10:22:27.433Z,160
2016-04-18T10:23:27.419Z,165
2016-04-18T10:24:27.407Z,160
2016-04-18T10:25:27.379Z,160
2016-04-18T10:26:27.412Z,160
2016-04-18T10:27:27.321Z,160
2016-04-18T10:28:28.980Z,165
2016-04-18T10:29:31.186Z,165
2016-04-18T10:30:27.267Z,165
2016-04-18T10:31:27.223Z,165
2016-04-18T10:32:27.209Z,180
2016-04-18T10:33:27.196Z,195
2016-04-18T10:34:27.184Z,185
2016-04-18T10:35:27.171Z,180
2016-04-18T10:36:27.112Z,180
2016-04-18T10:37:27.098Z,180
2016-04-18T10:38:27.085Z,180
2016-04-18T10:39:27.041Z,180
2016-04-18T10:40:27.029Z,190
2016-04-18T10:41:27.233Z,200
2016-04-18T10:42:26.986Z,195
2016-04-18T10:43:26.942Z,205
2016-04-18T10:44:26.945Z,215
2016-04-18T10:45:26.932Z,230
2016-04-18T10:46:26.889Z,235
2016-04-18T10:47:27.516Z,240
2016-04-18T10:48:26.847Z,240
2016-04-18T10:49:26.865Z,265
2016-04-18T10:50:27.009Z,310
2016-04-18T10:51:26.776Z,345
2016-04-18T10:52:26.763Z,350
2016-04-18T10:53:28.813Z,335
2016-04-18T10:54:26.707Z,305
2016-04-18T10:55:26.990Z,295
2016-04-18T10:56:34.305Z,290
2016-04-18T10:57:26.652Z,295
2016-04-18T10:58:26.623Z,300
2016-04-18T10:59:26.611Z,320
2016-04-18T11:00:26.598Z,325
2016-04-18T11:01:26.569Z,305
2016-04-18T11:02:26.556Z,320
2016-04-18T11:03:26.543Z,335
2016-04-18T11:04:26.514Z,300
2016-04-18T11:05:26.470Z,270
2016-04-18T11:06:26.457Z,255
2016-04-18T11:07:26.428Z,255
2016-04-18T11:08:26.259Z,245
2016-04-18T11:09:26.387Z,245
2016-04-18T11:10:26.375Z,240
2016-04-18T11:11:26.345Z,225
2016-04-18T11:12:26.317Z,215
2016-04-18T11:13:26.304Z,205
2016-04-18T11:14:26.275Z,190
2016-04-18T11:15:26.264Z,185
2016-04-18T11:16:26.250Z,195
2016-04-18T11:17:26.222Z,250
2016-04-18T11:18:26.192Z,310
2016-04-18T11:19:26.164Z,355
2016-04-18T11:20:26.152Z,375
2016-04-18T11:21:26.138Z,390
2016-04-18T11:22:26.111Z,375
2016-04-18T11:23:26.081Z,370
2016-04-18T11:24:26.053Z,345
2016-04-18T11:25:26.055Z,325
2016-04-18T11:26:26.027Z,305
2016-04-18T11:27:25.998Z,305
2016-04-18T11:28:25.970Z,310
2016-04-18T11:29:25.957Z,340
2016-04-18T11:30:25.928Z,385
2016-04-18T11:31:25.931Z,395
2016-04-18T11:32:25.902Z,365
2016-04-18T11:33:25.874Z,355
2016-04-18T11:34:25.846Z,355
2016-04-18T11:35:25.817Z,360
2016-04-18T11:36:25.803Z,370
2016-04-18T11:37:25.790Z,365
2016-04-18T11:38:25.762Z,365
2016-04-18T11:39:25.749Z,395
2016-04-18T11:40:25.737Z,395
2016-04-18T11:41:25.692Z,360
2016-04-18T11:42:25.695Z,320
2016-04-18T11:43:25.666Z,310
2016-04-18T11:44:25.637Z,320
2016-04-18T11:45:25.640Z,335
2016-04-18T11:46:25.612Z,350
2016-04-18T11:47:25.583Z,370
2016-04-18T11:48:25.570Z,340
2016-04-18T11:49:25.558Z,330
2016-04-18T11:50:25.560Z,330
2016-04-18T11:51:25.485Z,340
2016-04-18T11:52:25.488Z,355
2016-04-18T11:53:25.459Z,400
2016-04-18T11:54:25.462Z,425
2016-04-18T11:55:25.433Z,415
2016-04-18T11:56:25.389Z,380
2016-04-18T11:57:25.376Z,360
2016-04-18T11:58:25.363Z,355
2016-04-18T11:59:25.334Z,335
2016-04-18T12:00:25.305Z,315
2016-04-18T12:01:25.308Z,345
2016-04-18T12:02:25.296Z,365
2016-04-18T12:03:25.267Z,380
2016-04-18T12:04:25.239Z,395
2016-04-18T12:05:25.209Z,405
2016-04-18T12:06:25.212Z,405
2016-04-18T12:07:25.168Z,405
2016-04-18T12:08:25.171Z,405
2016-04-18T12:09:25.143Z,400
2016-04-18T12:10:25.129Z,400
2016-04-18T12:11:25.101Z,410
2016-04-18T12:12:25.088Z,415
2016-04-18T12:13:25.059Z,415
2016-04-18T12:14:25.031Z,420
2016-04-18T12:15:25.033Z,430
2016-04-18T12:16:24.989Z,410
2016-04-18T12:17:25.023Z,395
2016-04-18T12:18:24.822Z,385
2016-04-18T12:19:24.950Z,380
2016-04-18T12:20:24.922Z,365
2016-04-18T12:21:24.909Z,365
2016-04-18T12:22:24.880Z,365
2016-04-18T12:23:24.853Z,375
2016-04-18T12:24:24.854Z,380
2016-04-18T12:25:24.810Z,380
2016-04-18T12:26:24.798Z,390
2016-04-18T12:27:24.769Z,355
2016-04-18T12:28:24.772Z,315
2016-04-18T12:29:24.728Z,265
2016-04-18T12:30:24.699Z,235
2016-04-18T12:31:24.702Z,205
2016-04-18T12:32:24.689Z,170
2016-04-18T12:33:24.660Z,160
2016-04-18T12:34:24.632Z,150
2016-04-18T12:35:24.619Z,145
2016-04-18T12:36:24.590Z,145
2016-04-18T12:37:24.562Z,165
2016-04-18T12:38:24.549Z,185
2016-04-18T12:39:24.535Z,210
2016-04-18T12:40:24.507Z,235
2016-04-18T12:41:24.495Z,255
2016-04-18T12:42:24.465Z,265
2016-04-18T12:43:24.453Z,290
2016-04-18T12:44:24.424Z,325
2016-04-18T12:45:24.411Z,345
2016-04-18T12:46:24.383Z,350
2016-04-18T12:47:24.370Z,340
2016-04-18T12:48:24.342Z,325
2016-04-18T12:49:24.344Z,315
2016-04-18T12:50:24.300Z,310
2016-04-18T12:51:24.287Z,305
2016-04-18T12:52:24.274Z,315
2016-04-18T12:53:24.230Z,335
2016-04-18T12:54:24.232Z,340
2016-04-18T12:55:24.219Z,340
2016-04-18T12:56:24.175Z,335
2016-04-18T12:57:24.146Z,330
2016-04-18T12:58:24.134Z,325
2016-04-18T12:59:24.121Z,320
2016-04-18T13:00:24.091Z,300
2016-04-18T13:01:24.064Z,295
2016-04-18T13:02:24.066Z,305
2016-04-18T13:03:24.038Z,320
2016-04-18T13:04:24.025Z,330
2016-04-18T13:05:23.980Z,335
2016-04-18T13:06:23.967Z,340
2016-04-18T13:07:23.799Z,345
2016-04-18T13:08:23.926Z,355
2016-04-18T13:09:23.913Z,350
2016-04-18T13:10:23.885Z,350
2016-04-18T13:11:24.154Z,360
2016-04-18T13:12:23.859Z,365
2016-04-18T13:13:23.831Z,370
2016-04-18T13:14:23.801Z,370
2016-04-18T13:15:23.789Z,365
2016-04-18T13:16:23.776Z,355
2016-04-18T13:17:23.747Z,335
2016-04-18T13:18:23.719Z,320
2016-04-18T13:19:23.706Z,300
2016-04-18T13:20:23.677Z,275
2016-04-18T13:21:23.508Z,270
2016-04-18T13:22:23.636Z,265
2016-04-18T13:23:23.622Z,250
2016-04-18T13:24:23.641Z,230
2016-04-18T13:25:23.597Z,210
2016-04-18T13:26:23.881Z,200
2016-04-18T13:27:23.539Z,200
2016-04-18T13:28:23.558Z,210
2016-04-18T13:29:23.530Z,215
2016-04-18T13:30:23.486Z,230
2016-04-18T13:31:23.441Z,250
2016-04-18T13:32:23.443Z,275
2016-04-18T13:33:23.415Z,295
2016-04-18T13:34:23.387Z,310
2016-04-18T13:35:23.233Z,325
2016-04-18T13:36:23.360Z,325
2016-04-18T13:37:23.332Z,325
2016-04-18T13:38:23.319Z,325
2016-04-18T13:39:23.276Z,330
2016-04-18T13:40:23.278Z,345
2016-04-18T13:41:23.202Z,355
2016-04-18T13:42:23.220Z,335
2016-04-18T13:43:23.193Z,310
2016-04-18T13:44:23.179Z,310
2016-04-18T13:45:23.167Z,315
2016-04-18T13:46:23.137Z,320
2016-04-18T13:47:23.109Z,320
2016-04-18T13:48:23.112Z,325
2016-04-18T13:49:23.084Z,320
2016-04-18T13:50:23.070Z,310
2016-04-18T13:51:23.042Z,300
2016-04-18T13:52:23.014Z,290
2016-04-18T13:53:23.000Z,270
2016-04-18T13:54:22.987Z,255
2016-04-18T13:55:22.974Z,230
2016-04-18T13:56:22.992Z,205
2016-04-18T13:57:22.933Z,210
2016-04-18T13:58:22.905Z,255
2016-04-18T13:59:22.875Z,280
2016-04-18T14:00:22.878Z,295
2016-04-18T14:01:22.834Z,300
2016-04-18T14:02:22.805Z,310
2016-04-18T14:03:22.793Z,310
2016-04-18T14:04:22.764Z,310
2016-04-18T14:05:22.751Z,310
2016-04-18T14:06:22.583Z,315
2016-04-18T14:07:22.710Z,315
2016-04-18T14:08:22.682Z,315
2016-04-18T14:09:22.668Z,315